Flight Track Log - Related Links

Times and Time Zones

All times are in EDT time to prevent confusion due to time zone crossing. See the SWA1017 flight status page for this flight to view local times or setup timezone preferences in your user account.

Time Position Orientation Groundspeed Altitude Reporting Facility
EDT Latitude Longitude Course Direction KTS MPH feet Rate Location/Type
Wed 04:57:49 PM 30.1403 -97.5942 48° Northeast 232 267 5,700  Level Houston Center
Wed 04:58:51 PM 30.2167 -97.5308 36° Northeast 293 337 8,500 2,976 Climbing Houston Center
Wed 04:59:54 PM 30.2967 -97.4767 30° Northeast 326 375 11,900 2,640 Climbing Houston Center
Wed 05:00:56 PM 30.3886 -97.4150 30° Northeast 368 423 14,000 1,104 Climbing Houston Center
Wed 05:01:59 PM 30.4867 -97.3592 26° Northeast 388 447 14,200 1,597 Climbing Houston Center
Wed 05:02:00 PM 30.7043 -97.1291 41° Northeast  Level FlightAware Approximate
Wed 05:03:00 PM 30.7665 -97.0574 48° Northeast  Level FlightAware Approximate
Wed 05:03:00 PM 30.5758 -97.2881 34° Northeast 392 451 17,300  Level Houston Center
Wed 05:04:02 PM 30.6539 -97.1944 46° Northeast 402 463 20,800 2,274 Climbing Houston Center
Wed 05:05:04 PM 30.7481 -97.0833 45° Northeast 412 474 22,000 581 Climbing Houston Center
Wed 05:06:06 PM 30.8314 -96.9853 45° Northeast 425 489 22,000  Level Houston Center
Wed 05:07:08 PM 30.9128 -96.8867 46° Northeast 424 488 22,000  Level Houston Center
Wed 05:08:11 PM 30.9950 -96.7892 45° Northeast 422 486 22,000  Level Houston Center
Wed 05:09:13 PM 31.0775 -96.6903 46° Northeast 426 490 22,000  Level Houston Center
Wed 05:10:15 PM 31.1611 -96.5894 46° Northeast 430 495 22,000  Level Houston Center
Wed 05:11:17 PM 31.2589 -96.4744 45° Northeast 426 490 22,000  Level Houston Center
Wed 05:12:19 PM 31.3422 -96.3725 46° Northeast 428 493 22,000  Level Houston Center
Wed 05:13:15 PM 31.4278 -96.3081 33° Northeast 420 483 22,000  Level Fort Worth Center
Wed 05:14:15 PM 31.5425 -96.3117 358° North 394 453 22,000 -300 Level Fort Worth Center
Wed 05:15:15 PM 31.6617 -96.3200 357° North 405 466 21,400 -893 Descending Fort Worth Center
Wed 05:16:16 PM 31.7975 -96.3306 356° North 441 507 20,200 -2,050 Descending Fort Worth Center
Wed 05:17:15 PM 31.9228 -96.3364 358° North 447 514 17,300 -2,118 Descending Fort Worth Center
Wed 05:18:15 PM 32.0419 -96.3447 357° North 440 506 16,000 -2,132 Descending Fort Worth Center
Wed 05:19:16 PM 32.1589 -96.3533 356° North 418 481 13,000 -3,000 Descending Fort Worth Center
Wed 05:20:15 PM 32.2717 -96.3617 356° North 418 481 10,000 -1,664 Descending Fort Worth Center
Wed 05:21:15 PM 32.3614 -96.3656 358° North 379 436 9,700 -496 Descending Fort Worth Center
Wed 05:22:16 PM 32.4597 -96.3842 351° North 338 389 9,000 -850 Descending Fort Worth Center
Wed 05:23:15 PM 32.5289 -96.4278 332° Northwest 310 357 8,000 -1,008 Descending Fort Worth Center
Wed 05:24:15 PM 32.6169 -96.4786 334° Northwest 310 357 7,000 -942 Descending Fort Worth Center
Wed 05:25:16 PM 32.6861 -96.5247 331° Northwest 315 362 6,100 -1,000 Descending Fort Worth Center
Wed 05:26:15 PM 32.7556 -96.5958 319° Northwest 308 354 5,000 -1,008 Descending Fort Worth Center
Wed 05:27:15 PM 32.8144 -96.6522 321° Northwest 303 349 4,100 -1,098 Descending Fort Worth Center
Wed 05:27:37 PM 32.8333 -96.6833 306° West 300 345 3,500 -1,342 Descending Dallas / Fort Worth TRACON
Wed 05:28:31 PM 32.8833 -96.7500 312° West 280 322 2,400 -550 Descending Dallas / Fort Worth TRACON
Wed 05:29:37 PM 32.9167 -96.8167 301° West 187 215 2,400 -455 Level Dallas / Fort Worth TRACON
Wed 05:30:43 PM 32.9000 -96.8667 248° West 149 171 1,400 -750 Descending Dallas / Fort Worth TRACON
Wed 05:31:37 PM 32.8667 -96.8833 203° Southwest 134 154 900 -556 Descending Dallas / Fort Worth TRACON

Login

Don't have an account? Register now (free) for customized features, flight alerts, and more!